createdAt,value
2024-04-30T00:00:38.244Z,4.63
2024-04-30T00:03:05.762Z,4.38
2024-04-30T00:05:33.070Z,3.78
2024-04-30T00:08:00.454Z,4.68
2024-04-30T00:10:30.290Z,4.90
2024-04-30T00:12:57.670Z,4.07
2024-04-30T00:15:24.878Z,3.45
2024-04-30T00:17:52.140Z,3.38
2024-04-30T00:20:19.240Z,3.00
2024-04-30T00:22:46.322Z,2.58
2024-04-30T00:25:13.736Z,3.30
2024-04-30T00:27:42.683Z,3.33
2024-04-30T00:30:11.284Z,3.45
2024-04-30T00:32:38.438Z,3.30
2024-04-30T00:35:05.890Z,3.30
2024-04-30T00:37:33.048Z,3.35
2024-04-30T00:40:00.271Z,3.42
2024-04-30T00:42:27.459Z,3.70
2024-04-30T00:44:54.519Z,3.33
2024-04-30T00:47:21.983Z,3.55
2024-04-30T00:49:50.101Z,3.70
2024-04-30T00:52:19.979Z,3.40
2024-04-30T00:54:47.307Z,3.47
2024-04-30T00:57:15.633Z,3.50
2024-04-30T00:59:43.896Z,3.53
2024-04-30T01:02:15.941Z,3.95
2024-04-30T01:04:43.115Z,3.20
2024-04-30T01:07:10.491Z,3.35
2024-04-30T01:09:37.668Z,4.00
2024-04-30T01:12:05.184Z,3.58
2024-04-30T01:14:32.197Z,3.58
2024-04-30T01:16:59.312Z,4.00
2024-04-30T01:19:26.444Z,3.65
2024-04-30T01:21:53.528Z,3.95
2024-04-30T01:24:20.631Z,4.07
2024-04-30T01:26:47.760Z,4.18
2024-04-30T01:29:14.765Z,3.80
2024-04-30T01:31:43.933Z,4.35
2024-04-30T01:34:10.961Z,3.47
2024-04-30T01:36:38.119Z,3.35
2024-04-30T01:39:05.190Z,4.03
2024-04-30T01:41:32.238Z,3.42
2024-04-30T01:43:59.320Z,3.30
2024-04-30T01:46:26.933Z,3.20
2024-04-30T01:48:53.989Z,3.08
2024-04-30T01:51:21.063Z,2.97
2024-04-30T01:53:48.102Z,2.95
2024-04-30T01:56:15.188Z,2.63
2024-04-30T01:58:42.241Z,2.70
2024-04-30T02:01:09.457Z,2.38
2024-04-30T02:03:36.642Z,2.55
2024-04-30T02:06:04.046Z,2.30
2024-04-30T02:08:31.067Z,2.70
2024-04-30T02:10:58.266Z,2.40
2024-04-30T02:13:25.401Z,2.38
2024-04-30T02:15:52.472Z,2.40
2024-04-30T02:18:19.513Z,2.08
2024-04-30T02:20:48.835Z,2.35
2024-04-30T02:23:15.897Z,3.08
2024-04-30T02:25:42.901Z,2.60
2024-04-30T02:28:09.993Z,2.85
2024-04-30T02:30:55.512Z,2.75
2024-04-30T02:33:41.024Z,2.70
2024-04-30T02:36:11.680Z,2.67
2024-04-30T02:38:38.762Z,3.15
2024-04-30T02:41:08.009Z,2.83
2024-04-30T02:43:35.184Z,2.95
2024-04-30T02:46:02.336Z,3.25
2024-04-30T02:48:29.618Z,3.38
2024-04-30T02:50:56.734Z,2.78
2024-04-30T02:53:23.746Z,3.05
2024-04-30T02:55:50.834Z,3.22
2024-04-30T02:58:18.059Z,3.10
2024-04-30T03:00:45.104Z,3.30
2024-04-30T03:03:12.257Z,3.47
2024-04-30T03:05:39.394Z,3.50
2024-04-30T03:08:06.652Z,3.55
2024-04-30T03:10:33.779Z,3.85
2024-04-30T03:13:00.962Z,3.80
2024-04-30T03:15:28.006Z,3.45
2024-04-30T03:17:55.706Z,4.18
2024-04-30T03:20:22.893Z,3.58
2024-04-30T03:22:50.047Z,3.80
2024-04-30T03:25:17.254Z,3.92
2024-04-30T03:27:44.558Z,3.80
2024-04-30T03:30:11.716Z,3.53
2024-04-30T03:32:41.589Z,3.83
2024-04-30T03:35:08.838Z,3.65
2024-04-30T03:37:35.961Z,3.60
2024-04-30T03:40:03.880Z,4.00
2024-04-30T03:42:31.042Z,4.00
2024-04-30T03:44:58.089Z,3.28
2024-04-30T03:47:31.224Z,3.78
2024-04-30T03:50:01.462Z,4.00
2024-04-30T03:52:29.236Z,4.00
2024-04-30T03:54:56.339Z,4.07
2024-04-30T03:57:23.507Z,3.95
2024-04-30T03:59:50.524Z,3.70
2024-04-30T04:02:17.977Z,4.10
2024-04-30T04:04:45.055Z,3.60
2024-04-30T04:07:12.130Z,3.97
2024-04-30T04:09:39.126Z,4.30
2024-04-30T04:12:25.003Z,4.18
2024-04-30T04:14:52.638Z,3.67
2024-04-30T04:17:20.476Z,3.80
2024-04-30T04:19:48.354Z,4.10
2024-04-30T04:22:15.592Z,3.90
2024-04-30T04:24:42.687Z,3.88
2024-04-30T04:27:09.727Z,4.30
2024-04-30T04:29:38.982Z,3.97
2024-04-30T04:32:07.420Z,3.50
2024-04-30T04:34:34.678Z,3.70
2024-04-30T04:37:01.758Z,4.38
2024-04-30T04:39:28.782Z,4.90
2024-04-30T04:41:55.768Z,4.20
2024-04-30T04:44:24.806Z,3.85
2024-04-30T04:46:51.823Z,3.90
2024-04-30T04:49:18.825Z,4.47
2024-04-30T04:51:45.815Z,4.30
2024-04-30T04:54:12.730Z,4.25
2024-04-30T04:56:39.687Z,4.53
2024-04-30T04:59:06.634Z,4.35
2024-04-30T05:01:33.581Z,4.65
2024-04-30T05:04:00.697Z,4.43
2024-04-30T05:06:27.821Z,3.90
2024-04-30T05:08:54.747Z,4.07
2024-04-30T05:11:21.801Z,4.05
2024-04-30T05:13:48.951Z,5.32
2024-04-30T05:16:15.891Z,4.00
2024-04-30T05:18:44.202Z,4.15
2024-04-30T05:21:11.222Z,4.38
2024-04-30T05:23:38.195Z,4.15
2024-04-30T05:26:05.889Z,4.40
2024-04-30T05:28:33.002Z,3.85
2024-04-30T05:31:00.003Z,4.38
2024-04-30T05:33:28.895Z,4.57
2024-04-30T05:35:55.963Z,4.30
2024-04-30T05:38:25.854Z,4.10
2024-04-30T05:40:53.035Z,3.60
2024-04-30T05:43:20.199Z,3.97
2024-04-30T05:45:47.536Z,4.75
2024-04-30T05:48:14.673Z,4.38
2024-04-30T05:50:41.659Z,4.35
2024-04-30T05:53:11.330Z,4.03
2024-04-30T05:55:38.403Z,3.88
2024-04-30T05:58:05.414Z,3.65
2024-04-30T06:00:32.405Z,3.67
2024-04-30T06:03:04.016Z,4.07
2024-04-30T06:05:32.270Z,4.03
2024-04-30T06:07:59.309Z,3.80
2024-04-30T06:10:26.485Z,3.38
2024-04-30T06:12:53.647Z,3.83
2024-04-30T06:15:20.621Z,3.42
2024-04-30T06:17:47.683Z,3.30
2024-04-30T06:20:14.744Z,3.13
2024-04-30T06:22:41.787Z,3.83
2024-04-30T06:25:08.756Z,3.03
2024-04-30T06:27:35.731Z,3.30
2024-04-30T06:30:02.743Z,2.90
2024-04-30T06:32:29.720Z,3.28
2024-04-30T06:34:56.729Z,3.40
2024-04-30T06:37:23.747Z,3.30
2024-04-30T06:39:56.691Z,3.10
2024-04-30T06:42:23.613Z,3.30
2024-04-30T06:44:50.822Z,2.80
2024-04-30T06:47:17.795Z,3.13
2024-04-30T06:49:46.519Z,3.05
2024-04-30T06:52:13.623Z,3.22
2024-04-30T06:54:40.576Z,3.17
2024-04-30T06:57:07.485Z,2.95
2024-04-30T06:59:34.411Z,3.30
2024-04-30T07:02:01.363Z,2.88
2024-04-30T07:04:30.625Z,2.60
2024-04-30T07:07:00.108Z,2.88
2024-04-30T07:09:29.154Z,2.35
2024-04-30T07:11:56.110Z,2.30
2024-04-30T07:14:23.198Z,2.45
2024-04-30T07:16:56.772Z,2.15
2024-04-30T07:19:29.937Z,1.80
2024-04-30T07:21:56.913Z,1.88
2024-04-30T07:24:23.838Z,1.83
2024-04-30T07:26:50.778Z,1.83
2024-04-30T07:29:17.752Z,1.73
2024-04-30T07:31:44.721Z,1.70
2024-04-30T07:34:11.740Z,1.88
2024-04-30T07:36:38.741Z,1.98
2024-04-30T07:39:07.952Z,2.20
2024-04-30T07:41:34.894Z,1.65
2024-04-30T07:44:01.954Z,1.48
2024-04-30T07:46:28.971Z,1.33
2024-04-30T07:48:55.934Z,1.30
2024-04-30T07:51:23.075Z,1.40
2024-04-30T07:53:52.717Z,1.30
2024-04-30T07:56:19.732Z,1.25
2024-04-30T07:58:46.767Z,1.20
2024-04-30T08:01:13.984Z,1.50
2024-04-30T08:03:42.812Z,1.35
2024-04-30T08:06:14.775Z,1.23
2024-04-30T08:08:48.054Z,1.38
2024-04-30T08:11:15.822Z,1.00
2024-04-30T08:13:45.470Z,1.38
2024-04-30T08:16:13.281Z,1.40
2024-04-30T08:18:40.621Z,1.17
2024-04-30T08:21:08.086Z,1.90
2024-04-30T08:23:38.267Z,3.13
2024-04-30T08:26:06.980Z,1.45
2024-04-30T08:28:39.825Z,1.70
2024-04-30T08:31:07.611Z,1.10
2024-04-30T08:33:34.643Z,1.40
2024-04-30T08:36:01.759Z,1.20
2024-04-30T08:38:28.909Z,1.30
2024-04-30T08:40:56.158Z,1.30
2024-04-30T08:43:23.181Z,1.60
2024-04-30T08:45:51.227Z,1.70
2024-04-30T08:48:20.235Z,1.77
2024-04-30T08:50:51.473Z,1.17
2024-04-30T08:53:21.355Z,1.10
2024-04-30T08:55:48.695Z,1.08
2024-04-30T08:58:15.732Z,1.17
2024-04-30T09:00:42.948Z,1.35
2024-04-30T09:03:10.366Z,1.77
2024-04-30T09:05:37.459Z,1.38
2024-04-30T09:08:04.956Z,1.27
2024-04-30T09:10:32.173Z,1.80
2024-04-30T09:12:59.800Z,1.30
2024-04-30T09:15:26.944Z,1.25
2024-04-30T09:17:54.631Z,1.63
2024-04-30T09:20:21.734Z,1.10
2024-04-30T09:22:52.825Z,1.27
2024-04-30T09:25:35.933Z,1.35
2024-04-30T09:28:13.089Z,1.35
2024-04-30T09:30:43.043Z,1.13
2024-04-30T09:33:11.393Z,1.30
2024-04-30T09:35:38.584Z,0.93
2024-04-30T09:38:08.895Z,1.27
2024-04-30T09:40:37.249Z,1.00
2024-04-30T09:43:05.042Z,1.13
2024-04-30T09:45:34.771Z,1.00
2024-04-30T09:48:09.776Z,1.10
2024-04-30T09:50:38.635Z,1.00
2024-04-30T09:53:07.918Z,1.17
2024-04-30T09:55:37.683Z,0.95
2024-04-30T09:58:06.769Z,0.80
2024-04-30T10:00:33.793Z,0.98
2024-04-30T10:03:05.268Z,1.23
2024-04-30T10:05:36.322Z,0.82
2024-04-30T10:08:04.852Z,1.00
2024-04-30T10:10:33.043Z,1.08
2024-04-30T10:13:23.959Z,1.20
2024-04-30T10:15:51.334Z,0.98
2024-04-30T10:18:27.165Z,0.93
2024-04-30T10:20:54.145Z,1.15
2024-04-30T10:23:31.319Z,1.10
2024-04-30T10:26:05.734Z,0.80
2024-04-30T10:28:34.202Z,1.02
2024-04-30T10:31:11.349Z,1.15
2024-04-30T10:33:39.171Z,0.80
2024-04-30T10:36:09.575Z,1.08
2024-04-30T10:38:36.836Z,1.02
2024-04-30T10:41:05.454Z,0.90
2024-04-30T10:43:33.358Z,0.90
2024-04-30T10:46:11.368Z,0.98
2024-04-30T10:48:38.471Z,0.85
2024-04-30T10:51:05.693Z,1.00
2024-04-30T10:53:33.602Z,1.17
2024-04-30T10:56:03.264Z,1.05
2024-04-30T10:58:30.348Z,1.40
2024-04-30T11:00:59.656Z,0.80
2024-04-30T11:03:26.840Z,0.88
2024-04-30T11:06:01.242Z,0.90
2024-04-30T11:08:28.832Z,0.82
2024-04-30T11:11:07.834Z,1.33
2024-04-30T11:13:34.976Z,1.00
2024-04-30T11:16:08.082Z,0.93
2024-04-30T11:18:41.015Z,0.70
2024-04-30T11:21:08.136Z,0.80
2024-04-30T11:23:35.112Z,0.95
2024-04-30T11:26:02.126Z,1.10
2024-04-30T11:28:29.177Z,0.90
2024-04-30T11:30:58.423Z,0.98
2024-04-30T11:33:27.038Z,1.05
2024-04-30T11:35:55.366Z,1.23
2024-04-30T11:38:24.854Z,0.88
2024-04-30T11:40:54.059Z,0.65
2024-04-30T11:43:21.200Z,1.00
2024-04-30T11:45:48.397Z,0.80
2024-04-30T11:48:15.664Z,1.00
2024-04-30T11:50:42.711Z,1.08
2024-04-30T11:53:09.777Z,0.95
2024-04-30T11:55:36.869Z,1.10
2024-04-30T11:58:04.985Z,1.10
2024-04-30T12:00:32.319Z,1.15
2024-04-30T12:02:59.401Z,1.20
2024-04-30T12:05:29.412Z,0.90
2024-04-30T12:07:56.546Z,1.15
2024-04-30T12:10:24.261Z,0.98
2024-04-30T12:12:52.199Z,0.90
2024-04-30T12:15:19.649Z,0.95
2024-04-30T12:17:46.917Z,0.95
2024-04-30T12:20:14.263Z,0.80
2024-04-30T12:22:41.467Z,0.98
2024-04-30T12:25:11.385Z,0.80
2024-04-30T12:27:41.158Z,0.80
2024-04-30T12:30:11.205Z,0.80
2024-04-30T12:32:38.248Z,0.90
2024-04-30T12:35:05.583Z,1.00
2024-04-30T12:37:32.611Z,1.00
2024-04-30T12:39:59.706Z,1.00
2024-04-30T12:42:26.787Z,1.00
2024-04-30T12:44:53.755Z,0.98
2024-04-30T12:47:20.767Z,1.10
2024-04-30T12:49:47.899Z,0.98
2024-04-30T12:52:15.075Z,1.17
2024-04-30T12:54:42.063Z,1.10
2024-04-30T12:57:09.000Z,0.90
2024-04-30T12:59:35.979Z,1.20
2024-04-30T13:02:03.084Z,1.15
2024-04-30T13:04:39.833Z,1.10
2024-04-30T13:07:07.016Z,1.10
2024-04-30T13:09:34.387Z,0.90
2024-04-30T13:12:01.421Z,1.20
2024-04-30T13:14:28.475Z,1.08
2024-04-30T13:16:55.456Z,1.10
2024-04-30T13:19:22.439Z,1.10
2024-04-30T13:21:51.196Z,1.10
2024-04-30T13:24:18.415Z,0.80
2024-04-30T13:26:47.552Z,1.40
2024-04-30T13:29:14.553Z,1.48
2024-04-30T13:31:45.434Z,1.00
2024-04-30T13:34:12.875Z,1.17
2024-04-30T13:36:40.159Z,1.10
2024-04-30T13:39:07.769Z,1.20
2024-04-30T13:41:34.795Z,1.10
2024-04-30T13:44:01.833Z,1.17
2024-04-30T13:46:31.318Z,0.95
2024-04-30T13:48:58.329Z,1.02
2024-04-30T13:51:25.341Z,1.00
2024-04-30T13:53:52.352Z,1.08
2024-04-30T13:56:19.517Z,0.80
2024-04-30T13:58:47.355Z,0.95
2024-04-30T14:01:20.297Z,0.90
2024-04-30T14:03:47.382Z,1.10
2024-04-30T14:06:16.104Z,0.93
2024-04-30T14:08:43.330Z,1.15
2024-04-30T14:11:10.571Z,1.08
2024-04-30T14:13:37.646Z,0.90
2024-04-30T14:16:04.915Z,0.90
2024-04-30T14:18:34.940Z,1.00
2024-04-30T14:21:01.991Z,1.00
2024-04-30T14:23:29.615Z,0.85
2024-04-30T14:25:57.676Z,1.00
2024-04-30T14:28:25.680Z,1.00
2024-04-30T14:30:52.900Z,1.00
2024-04-30T14:33:20.134Z,0.95
2024-04-30T14:36:05.516Z,1.17
2024-04-30T14:38:37.523Z,1.30
2024-04-30T14:41:04.743Z,0.90
2024-04-30T14:43:31.717Z,1.20
2024-04-30T14:45:58.720Z,0.95
2024-04-30T14:48:25.813Z,1.10
2024-04-30T14:50:54.009Z,0.85
2024-04-30T14:53:20.989Z,1.17
2024-04-30T14:55:48.339Z,1.05
2024-04-30T14:58:15.614Z,1.08
2024-04-30T15:00:42.619Z,1.30
2024-04-30T15:03:09.721Z,0.90
2024-04-30T15:05:37.395Z,1.20
2024-04-30T15:08:04.630Z,0.77
2024-04-30T15:10:32.065Z,0.90
2024-04-30T15:12:59.036Z,1.10
2024-04-30T15:15:25.987Z,0.80
2024-04-30T15:17:53.010Z,1.00
2024-04-30T15:20:19.938Z,1.08
2024-04-30T15:22:46.925Z,0.80
2024-04-30T15:25:14.153Z,1.13
2024-04-30T15:27:41.130Z,1.00
2024-04-30T15:30:08.692Z,1.02
2024-04-30T15:32:35.785Z,0.93
2024-04-30T15:35:03.021Z,1.13
2024-04-30T15:37:29.973Z,1.40
2024-04-30T15:39:57.090Z,1.10
2024-04-30T15:42:24.989Z,1.25
2024-04-30T15:44:51.982Z,1.45
2024-04-30T15:47:18.989Z,0.90
2024-04-30T15:49:45.998Z,1.00
2024-04-30T15:52:13.074Z,0.90
2024-04-30T15:54:40.186Z,1.00
2024-04-30T15:57:07.131Z,1.00
2024-04-30T15:59:35.749Z,1.27
2024-04-30T16:02:02.872Z,0.90
2024-04-30T16:04:30.090Z,1.08
2024-04-30T16:06:57.073Z,0.98
2024-04-30T16:09:24.040Z,1.10
2024-04-30T16:11:51.081Z,1.00
2024-04-30T16:14:18.354Z,1.00
2024-04-30T16:16:45.455Z,1.10
2024-04-30T16:19:15.778Z,0.88
2024-04-30T16:21:44.118Z,0.98
2024-04-30T16:24:11.636Z,1.13
2024-04-30T16:26:42.188Z,1.30
2024-04-30T16:29:11.207Z,1.17
2024-04-30T16:31:38.486Z,1.20
2024-04-30T16:34:05.970Z,1.30
2024-04-30T16:36:33.166Z,1.10
2024-04-30T16:39:00.122Z,1.15
2024-04-30T16:41:27.188Z,1.20
2024-04-30T16:43:54.266Z,1.38
2024-04-30T16:46:21.282Z,1.10
2024-04-30T16:48:48.443Z,0.95
2024-04-30T16:51:15.499Z,1.27
2024-04-30T16:53:43.542Z,1.15
2024-04-30T16:56:11.002Z,1.02
2024-04-30T16:58:38.542Z,1.20
2024-04-30T17:01:05.617Z,1.20
2024-04-30T17:03:34.281Z,1.10
2024-04-30T17:06:06.285Z,1.20
2024-04-30T17:08:33.238Z,1.55
2024-04-30T17:11:00.250Z,1.60
2024-04-30T17:13:27.282Z,1.50
2024-04-30T17:15:57.276Z,1.55
2024-04-30T17:18:24.346Z,1.50
2024-04-30T17:20:52.159Z,1.80
2024-04-30T17:23:19.146Z,1.50
2024-04-30T17:25:46.066Z,1.38
2024-04-30T17:28:17.444Z,1.40
2024-04-30T17:30:44.406Z,1.20
2024-04-30T17:33:11.323Z,1.40
2024-04-30T17:35:38.346Z,1.50
2024-04-30T17:38:08.398Z,1.25
2024-04-30T17:40:35.372Z,1.40
2024-04-30T17:43:02.434Z,1.33
2024-04-30T17:45:29.492Z,1.30
2024-04-30T17:47:56.803Z,1.45
2024-04-30T17:50:23.968Z,1.33
2024-04-30T17:52:55.245Z,1.35
2024-04-30T17:55:22.234Z,1.55
2024-04-30T17:57:49.217Z,1.33
2024-04-30T18:00:16.390Z,1.55
2024-04-30T18:02:43.407Z,1.48
2024-04-30T18:05:10.483Z,1.50
2024-04-30T18:07:37.477Z,1.50
2024-04-30T18:10:04.772Z,1.40
2024-04-30T18:12:31.742Z,1.30
2024-04-30T18:15:01.712Z,1.45
2024-04-30T18:17:28.693Z,1.48
2024-04-30T18:19:55.650Z,1.60
2024-04-30T18:22:22.775Z,1.60
2024-04-30T18:24:49.805Z,1.63
2024-04-30T18:27:18.050Z,1.48
2024-04-30T18:29:45.090Z,1.77
2024-04-30T18:32:12.079Z,1.73
2024-04-30T18:34:39.106Z,1.83
2024-04-30T18:37:08.181Z,1.55
2024-04-30T18:39:35.232Z,1.60
2024-04-30T18:42:02.312Z,1.50
2024-04-30T18:44:30.890Z,1.50
2024-04-30T18:46:59.267Z,1.85
2024-04-30T18:49:26.403Z,1.73
2024-04-30T18:51:53.716Z,1.38
2024-04-30T18:54:20.934Z,1.90
2024-04-30T18:56:50.174Z,2.70
2024-04-30T18:59:18.765Z,1.60
2024-04-30T19:01:48.915Z,1.45
2024-04-30T19:04:15.963Z,1.65
2024-04-30T19:06:43.225Z,1.50
2024-04-30T19:09:10.367Z,1.40
2024-04-30T19:11:37.327Z,1.65
2024-04-30T19:14:04.364Z,1.50
2024-04-30T19:16:31.315Z,1.55
2024-04-30T19:19:00.554Z,1.48
2024-04-30T19:21:27.625Z,1.95
2024-04-30T19:23:54.634Z,1.90
2024-04-30T19:26:21.594Z,1.65
2024-04-30T19:28:51.167Z,1.30
2024-04-30T19:31:20.776Z,1.80
2024-04-30T19:33:48.306Z,1.67
2024-04-30T19:36:19.747Z,1.73
2024-04-30T19:38:47.720Z,1.80
2024-04-30T19:41:15.647Z,1.77
2024-04-30T19:43:43.098Z,1.60
2024-04-30T19:46:20.922Z,1.50
2024-04-30T19:48:50.988Z,1.73
2024-04-30T19:51:21.990Z,1.80
2024-04-30T19:53:53.468Z,2.05
2024-04-30T19:56:23.850Z,1.52
2024-04-30T19:58:57.168Z,1.55
2024-04-30T20:01:29.048Z,1.70
2024-04-30T20:04:00.737Z,1.63
2024-04-30T20:06:28.204Z,1.60
2024-04-30T20:08:55.318Z,1.58
2024-04-30T20:11:25.026Z,1.70
2024-04-30T20:13:53.342Z,1.30
2024-04-30T20:16:20.408Z,1.85
2024-04-30T20:18:47.585Z,1.95
2024-04-30T20:21:15.596Z,1.80
2024-04-30T20:23:43.085Z,1.55
2024-04-30T20:26:12.330Z,1.80
2024-04-30T20:28:42.088Z,1.90
2024-04-30T20:31:09.095Z,1.80
2024-04-30T20:33:36.413Z,1.83
2024-04-30T20:36:03.668Z,1.90
2024-04-30T20:38:32.574Z,1.80
2024-04-30T20:40:59.583Z,1.80
2024-04-30T20:43:26.576Z,1.73
2024-04-30T20:45:53.543Z,2.10
2024-04-30T20:48:20.753Z,1.98
2024-04-30T20:50:47.784Z,1.77
2024-04-30T20:53:14.823Z,1.95
2024-04-30T20:55:45.387Z,1.92
2024-04-30T20:58:12.736Z,1.70
2024-04-30T21:00:39.773Z,1.77
2024-04-30T21:03:06.826Z,1.88
2024-04-30T21:05:33.920Z,2.10
2024-04-30T21:08:01.541Z,1.90
2024-04-30T21:10:28.491Z,1.90
2024-04-30T21:12:58.905Z,2.00
2024-04-30T21:15:25.983Z,2.00
2024-04-30T21:17:55.815Z,1.65
2024-04-30T21:20:22.817Z,2.13
2024-04-30T21:22:49.779Z,1.77
2024-04-30T21:25:16.674Z,2.25
2024-04-30T21:27:43.651Z,2.00
2024-04-30T21:30:11.444Z,2.30
2024-04-30T21:32:38.426Z,2.30
2024-04-30T21:35:13.037Z,2.50
2024-04-30T21:37:40.671Z,2.70
2024-04-30T21:40:08.960Z,2.88
2024-04-30T21:42:36.245Z,2.53
2024-04-30T21:45:06.229Z,3.10
2024-04-30T21:47:33.219Z,2.80
2024-04-30T21:50:00.276Z,2.80
2024-04-30T21:52:27.271Z,3.40
2024-04-30T21:54:57.379Z,2.40
2024-04-30T21:57:26.159Z,3.30
2024-04-30T21:59:53.109Z,2.50
2024-04-30T22:02:23.756Z,2.97
2024-04-30T22:04:50.772Z,2.75
2024-04-30T22:07:21.212Z,2.42
2024-04-30T22:09:48.482Z,2.80
2024-04-30T22:12:15.549Z,2.65
2024-04-30T22:14:42.488Z,2.30
2024-04-30T22:17:09.419Z,2.33
2024-04-30T22:19:36.469Z,2.20
2024-04-30T22:22:03.600Z,2.28
2024-04-30T22:24:30.620Z,2.20
2024-04-30T22:26:57.589Z,2.72
2024-04-30T22:29:24.551Z,2.40
2024-04-30T22:31:52.108Z,2.50
2024-04-30T22:34:19.420Z,2.40
2024-04-30T22:36:48.611Z,2.50
2024-04-30T22:39:15.568Z,2.30
2024-04-30T22:41:42.503Z,2.25
2024-04-30T22:44:09.378Z,2.40
2024-04-30T22:46:36.359Z,2.30
2024-04-30T22:49:06.043Z,2.60
2024-04-30T22:51:33.085Z,2.30
2024-04-30T22:54:00.000Z,2.50
2024-04-30T22:56:27.510Z,2.40
2024-04-30T22:58:55.259Z,2.25
2024-04-30T23:01:22.311Z,2.50
2024-04-30T23:03:49.480Z,3.08
2024-04-30T23:06:16.476Z,2.90
2024-04-30T23:08:43.446Z,2.70
2024-04-30T23:11:10.384Z,2.78
2024-04-30T23:13:37.315Z,2.85
2024-04-30T23:16:04.578Z,2.53
2024-04-30T23:18:31.803Z,2.65
2024-04-30T23:21:01.216Z,2.75
2024-04-30T23:23:28.418Z,2.40
2024-04-30T23:25:55.314Z,2.47
2024-04-30T23:28:22.192Z,2.80
2024-04-30T23:30:49.182Z,2.72
2024-04-30T23:33:16.138Z,2.58
2024-04-30T23:35:43.076Z,3.00
2024-04-30T23:38:10.005Z,2.75
2024-04-30T23:40:36.927Z,2.65
2024-04-30T23:43:03.984Z,2.22
2024-04-30T23:45:31.020Z,2.85
2024-04-30T23:47:57.988Z,2.42
2024-04-30T23:50:24.922Z,2.65
2024-04-30T23:52:51.871Z,3.05
2024-04-30T23:55:20.879Z,2.97
2024-04-30T23:57:47.888Z,2.75
